sensor_id;sensor_type;location;lat;lon;timestamp;P1;durP1;ratioP1;P2;durP2;ratioP2
16346;SDS011;8283;48.504;13.734;2023-04-15T00:00:16;1.95;;;0.85;;
16346;SDS011;8283;48.504;13.734;2023-04-15T00:03:03;0.80;;;0.80;;
16346;SDS011;8283;48.504;13.734;2023-04-15T00:05:49;0.60;;;0.60;;
16346;SDS011;8283;48.504;13.734;2023-04-15T00:08:34;0.93;;;0.77;;
16346;SDS011;8283;48.504;13.734;2023-04-15T00:11:19;0.80;;;0.80;;
16346;SDS011;8283;48.504;13.734;2023-04-15T00:14:04;0.85;;;0.85;;
16346;SDS011;8283;48.504;13.734;2023-04-15T00:16:49;0.60;;;0.60;;
16346;SDS011;8283;48.504;13.734;2023-04-15T00:19:38;0.70;;;0.70;;
16346;SDS011;8283;48.504;13.734;2023-04-15T00:22:23;0.68;;;0.63;;
16346;SDS011;8283;48.504;13.734;2023-04-15T00:25:08;0.55;;;0.55;;
16346;SDS011;8283;48.504;13.734;2023-04-15T00:27:52;0.63;;;0.63;;
16346;SDS011;8283;48.504;13.734;2023-04-15T00:30:37;0.60;;;0.60;;
16346;SDS011;8283;48.504;13.734;2023-04-15T00:33:21;0.50;;;0.50;;
16346;SDS011;8283;48.504;13.734;2023-04-15T00:36:06;1.48;;;0.60;;
16346;SDS011;8283;48.504;13.734;2023-04-15T00:38:51;0.88;;;0.70;;
16346;SDS011;8283;48.504;13.734;2023-04-15T00:41:37;0.50;;;0.50;;
16346;SDS011;8283;48.504;13.734;2023-04-15T00:44:22;0.70;;;0.60;;
16346;SDS011;8283;48.504;13.734;2023-04-15T00:47:06;0.70;;;0.68;;
16346;SDS011;8283;48.504;13.734;2023-04-15T00:49:51;0.75;;;0.70;;
16346;SDS011;8283;48.504;13.734;2023-04-15T00:52:35;0.63;;;0.60;;
16346;SDS011;8283;48.504;13.734;2023-04-15T00:55:21;0.80;;;0.80;;
16346;SDS011;8283;48.504;13.734;2023-04-15T00:58:06;1.42;;;1.17;;
16346;SDS011;8283;48.504;13.734;2023-04-15T01:00:50;1.20;;;1.10;;
16346;SDS011;8283;48.504;13.734;2023-04-15T01:03:36;1.10;;;0.98;;
16346;SDS011;8283;48.504;13.734;2023-04-15T01:06:22;0.80;;;0.80;;
16346;SDS011;8283;48.504;13.734;2023-04-15T01:09:06;1.27;;;1.00;;
16346;SDS011;8283;48.504;13.734;2023-04-15T01:11:50;1.20;;;1.02;;
16346;SDS011;8283;48.504;13.734;2023-04-15T01:14:35;0.77;;;0.70;;
16346;SDS011;8283;48.504;13.734;2023-04-15T01:17:20;1.02;;;0.95;;
16346;SDS011;8283;48.504;13.734;2023-04-15T01:20:06;0.70;;;0.70;;
16346;SDS011;8283;48.504;13.734;2023-04-15T01:22:53;0.70;;;0.70;;
16346;SDS011;8283;48.504;13.734;2023-04-15T01:25:38;0.80;;;0.70;;
16346;SDS011;8283;48.504;13.734;2023-04-15T01:28:23;1.40;;;1.00;;
16346;SDS011;8283;48.504;13.734;2023-04-15T01:31:09;1.00;;;0.82;;
16346;SDS011;8283;48.504;13.734;2023-04-15T01:33:56;0.80;;;0.70;;
16346;SDS011;8283;48.504;13.734;2023-04-15T01:36:41;0.60;;;0.60;;
16346;SDS011;8283;48.504;13.734;2023-04-15T01:39:25;0.52;;;0.50;;
16346;SDS011;8283;48.504;13.734;2023-04-15T01:42:13;1.00;;;0.68;;
16346;SDS011;8283;48.504;13.734;2023-04-15T01:44:59;0.80;;;0.80;;
16346;SDS011;8283;48.504;13.734;2023-04-15T01:47:43;0.70;;;0.70;;
16346;SDS011;8283;48.504;13.734;2023-04-15T01:50:28;0.60;;;0.60;;
16346;SDS011;8283;48.504;13.734;2023-04-15T01:53:12;0.80;;;0.80;;
16346;SDS011;8283;48.504;13.734;2023-04-15T01:55:58;0.88;;;0.68;;
16346;SDS011;8283;48.504;13.734;2023-04-15T01:58:42;0.73;;;0.60;;
16346;SDS011;8283;48.504;13.734;2023-04-15T02:01:27;0.40;;;0.40;;
16346;SDS011;8283;48.504;13.734;2023-04-15T02:04:11;0.47;;;0.47;;
16346;SDS011;8283;48.504;13.734;2023-04-15T02:07:02;1.52;;;0.60;;
16346;SDS011;8283;48.504;13.734;2023-04-15T02:09:46;0.88;;;0.70;;
16346;SDS011;8283;48.504;13.734;2023-04-15T02:12:30;0.40;;;0.40;;
16346;SDS011;8283;48.504;13.734;2023-04-15T02:15:15;1.05;;;0.80;;
16346;SDS011;8283;48.504;13.734;2023-04-15T02:18:00;0.70;;;0.70;;
16346;SDS011;8283;48.504;13.734;2023-04-15T02:20:44;1.10;;;1.00;;
16346;SDS011;8283;48.504;13.734;2023-04-15T02:23:29;0.60;;;0.60;;
16346;SDS011;8283;48.504;13.734;2023-04-15T02:26:14;1.00;;;0.68;;
16346;SDS011;8283;48.504;13.734;2023-04-15T02:28:58;0.50;;;0.50;;
16346;SDS011;8283;48.504;13.734;2023-04-15T02:31:43;0.68;;;0.68;;
16346;SDS011;8283;48.504;13.734;2023-04-15T02:34:28;0.70;;;0.70;;
16346;SDS011;8283;48.504;13.734;2023-04-15T02:37:14;0.57;;;0.57;;
16346;SDS011;8283;48.504;13.734;2023-04-15T02:39:59;0.68;;;0.60;;
16346;SDS011;8283;48.504;13.734;2023-04-15T02:42:44;0.60;;;0.60;;
16346;SDS011;8283;48.504;13.734;2023-04-15T02:45:31;0.75;;;0.60;;
16346;SDS011;8283;48.504;13.734;2023-04-15T02:48:18;0.50;;;0.50;;
16346;SDS011;8283;48.504;13.734;2023-04-15T02:51:09;0.60;;;0.60;;
16346;SDS011;8283;48.504;13.734;2023-04-15T02:53:55;0.60;;;0.60;;
16346;SDS011;8283;48.504;13.734;2023-04-15T02:56:40;1.00;;;0.50;;
16346;SDS011;8283;48.504;13.734;2023-04-15T02:59:24;1.05;;;0.77;;
16346;SDS011;8283;48.504;13.734;2023-04-15T03:02:09;1.02;;;0.73;;
16346;SDS011;8283;48.504;13.734;2023-04-15T03:04:53;1.95;;;0.73;;
16346;SDS011;8283;48.504;13.734;2023-04-15T03:07:38;0.77;;;0.77;;
16346;SDS011;8283;48.504;13.734;2023-04-15T03:10:23;0.57;;;0.45;;
16346;SDS011;8283;48.504;13.734;2023-04-15T03:13:08;0.50;;;0.50;;
16346;SDS011;8283;48.504;13.734;2023-04-15T03:15:52;0.40;;;0.40;;
16346;SDS011;8283;48.504;13.734;2023-04-15T03:18:39;1.00;;;0.60;;
16346;SDS011;8283;48.504;13.734;2023-04-15T03:21:24;0.50;;;0.50;;
16346;SDS011;8283;48.504;13.734;2023-04-15T03:24:10;0.82;;;0.70;;
16346;SDS011;8283;48.504;13.734;2023-04-15T03:26:55;0.60;;;0.60;;
16346;SDS011;8283;48.504;13.734;2023-04-15T03:29:40;0.82;;;0.60;;
16346;SDS011;8283;48.504;13.734;2023-04-15T03:32:25;0.70;;;0.70;;
16346;SDS011;8283;48.504;13.734;2023-04-15T03:35:11;0.80;;;0.73;;
16346;SDS011;8283;48.504;13.734;2023-04-15T03:37:55;0.98;;;0.88;;
16346;SDS011;8283;48.504;13.734;2023-04-15T03:40:40;0.70;;;0.70;;
16346;SDS011;8283;48.504;13.734;2023-04-15T03:43:24;0.57;;;0.57;;
16346;SDS011;8283;48.504;13.734;2023-04-15T03:46:09;0.60;;;0.57;;
16346;SDS011;8283;48.504;13.734;2023-04-15T03:48:53;0.73;;;0.63;;
16346;SDS011;8283;48.504;13.734;2023-04-15T03:51:38;0.50;;;0.50;;
16346;SDS011;8283;48.504;13.734;2023-04-15T03:54:22;0.60;;;0.50;;
16346;SDS011;8283;48.504;13.734;2023-04-15T03:57:06;0.43;;;0.40;;
16346;SDS011;8283;48.504;13.734;2023-04-15T03:59:51;0.50;;;0.47;;
16346;SDS011;8283;48.504;13.734;2023-04-15T04:02:35;0.57;;;0.50;;
16346;SDS011;8283;48.504;13.734;2023-04-15T04:05:20;0.63;;;0.35;;
16346;SDS011;8283;48.504;13.734;2023-04-15T04:08:04;0.80;;;0.40;;
16346;SDS011;8283;48.504;13.734;2023-04-15T04:10:49;0.47;;;0.47;;
16346;SDS011;8283;48.504;13.734;2023-04-15T04:13:34;0.77;;;0.75;;
16346;SDS011;8283;48.504;13.734;2023-04-15T04:16:18;0.77;;;0.63;;
16346;SDS011;8283;48.504;13.734;2023-04-15T04:19:03;0.85;;;0.60;;
16346;SDS011;8283;48.504;13.734;2023-04-15T04:21:47;1.15;;;0.70;;
16346;SDS011;8283;48.504;13.734;2023-04-15T04:24:31;0.75;;;0.75;;
16346;SDS011;8283;48.504;13.734;2023-04-15T04:27:15;0.45;;;0.45;;
16346;SDS011;8283;48.504;13.734;2023-04-15T04:30:00;0.73;;;0.73;;
16346;SDS011;8283;48.504;13.734;2023-04-15T04:32:45;0.80;;;0.60;;
16346;SDS011;8283;48.504;13.734;2023-04-15T04:35:29;0.63;;;0.63;;
16346;SDS011;8283;48.504;13.734;2023-04-15T04:38:16;0.65;;;0.50;;
16346;SDS011;8283;48.504;13.734;2023-04-15T04:41:01;0.60;;;0.50;;
16346;SDS011;8283;48.504;13.734;2023-04-15T04:43:45;0.70;;;0.60;;
16346;SDS011;8283;48.504;13.734;2023-04-15T04:46:30;0.60;;;0.45;;
16346;SDS011;8283;48.504;13.734;2023-04-15T04:49:14;0.50;;;0.50;;
16346;SDS011;8283;48.504;13.734;2023-04-15T04:51:58;0.40;;;0.40;;
16346;SDS011;8283;48.504;13.734;2023-04-15T04:54:43;0.50;;;0.40;;
16346;SDS011;8283;48.504;13.734;2023-04-15T04:57:27;0.40;;;0.40;;
16346;SDS011;8283;48.504;13.734;2023-04-15T05:00:11;0.40;;;0.40;;
16346;SDS011;8283;48.504;13.734;2023-04-15T05:02:56;0.55;;;0.40;;
16346;SDS011;8283;48.504;13.734;2023-04-15T05:05:41;1.17;;;0.90;;
16346;SDS011;8283;48.504;13.734;2023-04-15T05:08:26;0.45;;;0.30;;
16346;SDS011;8283;48.504;13.734;2023-04-15T05:11:10;0.30;;;0.30;;
16346;SDS011;8283;48.504;13.734;2023-04-15T05:13:54;0.55;;;0.38;;
16346;SDS011;8283;48.504;13.734;2023-04-15T05:16:39;0.40;;;0.40;;
16346;SDS011;8283;48.504;13.734;2023-04-15T05:19:23;0.30;;;0.30;;
16346;SDS011;8283;48.504;13.734;2023-04-15T05:22:07;0.50;;;0.50;;
16346;SDS011;8283;48.504;13.734;2023-04-15T05:24:52;0.40;;;0.40;;
16346;SDS011;8283;48.504;13.734;2023-04-15T05:27:36;0.40;;;0.30;;
16346;SDS011;8283;48.504;13.734;2023-04-15T05:30:21;0.40;;;0.40;;
16346;SDS011;8283;48.504;13.734;2023-04-15T05:33:06;0.63;;;0.50;;
16346;SDS011;8283;48.504;13.734;2023-04-15T05:35:50;0.43;;;0.43;;
16346;SDS011;8283;48.504;13.734;2023-04-15T05:38:34;0.40;;;0.40;;
16346;SDS011;8283;48.504;13.734;2023-04-15T05:41:19;0.50;;;0.50;;
16346;SDS011;8283;48.504;13.734;2023-04-15T05:44:03;0.63;;;0.50;;
16346;SDS011;8283;48.504;13.734;2023-04-15T05:46:48;0.40;;;0.40;;
16346;SDS011;8283;48.504;13.734;2023-04-15T05:49:32;0.52;;;0.47;;
16346;SDS011;8283;48.504;13.734;2023-04-15T05:52:17;0.57;;;0.52;;
16346;SDS011;8283;48.504;13.734;2023-04-15T05:55:01;0.40;;;0.40;;
16346;SDS011;8283;48.504;13.734;2023-04-15T05:57:45;0.20;;;0.20;;
16346;SDS011;8283;48.504;13.734;2023-04-15T06:00:29;0.55;;;0.50;;
16346;SDS011;8283;48.504;13.734;2023-04-15T06:03:14;0.70;;;0.60;;
16346;SDS011;8283;48.504;13.734;2023-04-15T06:05:58;0.40;;;0.40;;
16346;SDS011;8283;48.504;13.734;2023-04-15T06:08:44;0.30;;;0.30;;
16346;SDS011;8283;48.504;13.734;2023-04-15T06:11:29;0.30;;;0.30;;
16346;SDS011;8283;48.504;13.734;2023-04-15T06:14:13;0.30;;;0.30;;
16346;SDS011;8283;48.504;13.734;2023-04-15T06:16:57;0.40;;;0.40;;
16346;SDS011;8283;48.504;13.734;2023-04-15T06:19:41;0.55;;;0.55;;
16346;SDS011;8283;48.504;13.734;2023-04-15T06:22:26;0.70;;;0.70;;
16346;SDS011;8283;48.504;13.734;2023-04-15T06:25:10;0.30;;;0.30;;
16346;SDS011;8283;48.504;13.734;2023-04-15T06:27:54;0.40;;;0.40;;
16346;SDS011;8283;48.504;13.734;2023-04-15T06:30:39;0.80;;;0.20;;
16346;SDS011;8283;48.504;13.734;2023-04-15T06:33:24;0.98;;;0.65;;
16346;SDS011;8283;48.504;13.734;2023-04-15T06:36:08;0.57;;;0.40;;
16346;SDS011;8283;48.504;13.734;2023-04-15T06:38:52;0.88;;;0.70;;
16346;SDS011;8283;48.504;13.734;2023-04-15T06:41:37;2.50;;;0.60;;
16346;SDS011;8283;48.504;13.734;2023-04-15T06:44:21;0.50;;;0.47;;
16346;SDS011;8283;48.504;13.734;2023-04-15T06:47:05;0.40;;;0.40;;
16346;SDS011;8283;48.504;13.734;2023-04-15T06:49:50;0.30;;;0.30;;
16346;SDS011;8283;48.504;13.734;2023-04-15T06:52:35;0.55;;;0.38;;
16346;SDS011;8283;48.504;13.734;2023-04-15T06:55:19;0.40;;;0.40;;
16346;SDS011;8283;48.504;13.734;2023-04-15T06:58:03;0.30;;;0.30;;
16346;SDS011;8283;48.504;13.734;2023-04-15T07:00:47;0.65;;;0.55;;
16346;SDS011;8283;48.504;13.734;2023-04-15T07:03:32;0.93;;;0.70;;
16346;SDS011;8283;48.504;13.734;2023-04-15T07:06:16;0.13;;;0.10;;
16346;SDS011;8283;48.504;13.734;2023-04-15T07:09:00;0.30;;;0.20;;
16346;SDS011;8283;48.504;13.734;2023-04-15T07:11:47;0.25;;;0.25;;
16346;SDS011;8283;48.504;13.734;2023-04-15T07:14:32;0.95;;;0.63;;
16346;SDS011;8283;48.504;13.734;2023-04-15T07:17:16;0.50;;;0.50;;
16346;SDS011;8283;48.504;13.734;2023-04-15T07:20:01;0.70;;;0.50;;
16346;SDS011;8283;48.504;13.734;2023-04-15T07:22:45;0.55;;;0.43;;
16346;SDS011;8283;48.504;13.734;2023-04-15T07:25:30;0.70;;;0.60;;
16346;SDS011;8283;48.504;13.734;2023-04-15T07:28:14;0.70;;;0.68;;
16346;SDS011;8283;48.504;13.734;2023-04-15T07:30:59;0.70;;;0.60;;
16346;SDS011;8283;48.504;13.734;2023-04-15T07:33:43;0.40;;;0.40;;
16346;SDS011;8283;48.504;13.734;2023-04-15T07:36:28;0.40;;;0.40;;
16346;SDS011;8283;48.504;13.734;2023-04-15T07:39:12;0.50;;;0.50;;
16346;SDS011;8283;48.504;13.734;2023-04-15T07:41:57;1.15;;;0.70;;
16346;SDS011;8283;48.504;13.734;2023-04-15T07:44:41;1.27;;;0.90;;
16346;SDS011;8283;48.504;13.734;2023-04-15T07:47:25;0.80;;;0.57;;
16346;SDS011;8283;48.504;13.734;2023-04-15T07:50:10;0.60;;;0.45;;
16346;SDS011;8283;48.504;13.734;2023-04-15T07:52:55;0.40;;;0.40;;
16346;SDS011;8283;48.504;13.734;2023-04-15T07:55:40;0.60;;;0.40;;
16346;SDS011;8283;48.504;13.734;2023-04-15T07:58:24;0.40;;;0.40;;
16346;SDS011;8283;48.504;13.734;2023-04-15T08:01:09;0.47;;;0.47;;
16346;SDS011;8283;48.504;13.734;2023-04-15T08:03:53;0.68;;;0.60;;
16346;SDS011;8283;48.504;13.734;2023-04-15T08:06:38;0.88;;;0.63;;
16346;SDS011;8283;48.504;13.734;2023-04-15T08:09:22;0.80;;;0.60;;
16346;SDS011;8283;48.504;13.734;2023-04-15T08:12:07;0.68;;;0.45;;
16346;SDS011;8283;48.504;13.734;2023-04-15T08:14:55;0.60;;;0.50;;
16346;SDS011;8283;48.504;13.734;2023-04-15T08:17:40;0.95;;;0.60;;
16346;SDS011;8283;48.504;13.734;2023-04-15T08:20:25;0.70;;;0.40;;
16346;SDS011;8283;48.504;13.734;2023-04-15T08:23:09;1.67;;;0.60;;
16346;SDS011;8283;48.504;13.734;2023-04-15T08:25:54;1.60;;;0.68;;
16346;SDS011;8283;48.504;13.734;2023-04-15T08:28:39;1.85;;;0.90;;
16346;SDS011;8283;48.504;13.734;2023-04-15T08:31:25;1.20;;;0.80;;
16346;SDS011;8283;48.504;13.734;2023-04-15T08:34:10;0.98;;;0.60;;
16346;SDS011;8283;48.504;13.734;2023-04-15T08:36:55;1.13;;;0.80;;
16346;SDS011;8283;48.504;13.734;2023-04-15T08:39:39;0.95;;;0.80;;
16346;SDS011;8283;48.504;13.734;2023-04-15T08:42:29;1.15;;;0.85;;
16346;SDS011;8283;48.504;13.734;2023-04-15T08:45:15;1.15;;;0.70;;
16346;SDS011;8283;48.504;13.734;2023-04-15T08:48:01;2.33;;;1.23;;
16346;SDS011;8283;48.504;13.734;2023-04-15T08:50:48;1.00;;;0.70;;
16346;SDS011;8283;48.504;13.734;2023-04-15T08:53:33;0.57;;;0.57;;
16346;SDS011;8283;48.504;13.734;2023-04-15T08:56:18;0.70;;;0.70;;
16346;SDS011;8283;48.504;13.734;2023-04-15T08:59:09;0.80;;;0.80;;
16346;SDS011;8283;48.504;13.734;2023-04-15T09:01:55;1.20;;;0.68;;
16346;SDS011;8283;48.504;13.734;2023-04-15T09:04:40;0.85;;;0.68;;
16346;SDS011;8283;48.504;13.734;2023-04-15T09:07:25;1.40;;;1.10;;
16346;SDS011;8283;48.504;13.734;2023-04-15T09:10:09;1.83;;;0.90;;
16346;SDS011;8283;48.504;13.734;2023-04-15T09:12:54;0.60;;;0.60;;
16346;SDS011;8283;48.504;13.734;2023-04-15T09:15:39;0.65;;;0.50;;
16346;SDS011;8283;48.504;13.734;2023-04-15T09:18:31;0.40;;;0.40;;
16346;SDS011;8283;48.504;13.734;2023-04-15T09:21:16;0.45;;;0.40;;
16346;SDS011;8283;48.504;13.734;2023-04-15T09:24:01;0.75;;;0.47;;
16346;SDS011;8283;48.504;13.734;2023-04-15T09:26:46;0.47;;;0.40;;
16346;SDS011;8283;48.504;13.734;2023-04-15T09:29:31;0.60;;;0.57;;
16346;SDS011;8283;48.504;13.734;2023-04-15T09:32:15;0.50;;;0.50;;
16346;SDS011;8283;48.504;13.734;2023-04-15T09:35:09;0.73;;;0.60;;
16346;SDS011;8283;48.504;13.734;2023-04-15T09:38:02;0.82;;;0.55;;
16346;SDS011;8283;48.504;13.734;2023-04-15T09:40:51;0.63;;;0.63;;
16346;SDS011;8283;48.504;13.734;2023-04-15T09:43:37;1.15;;;0.60;;
16346;SDS011;8283;48.504;13.734;2023-04-15T09:46:44;0.50;;;0.45;;
16346;SDS011;8283;48.504;13.734;2023-04-15T09:49:27;0.98;;;0.70;;
16346;SDS011;8283;48.504;13.734;2023-04-15T09:52:12;0.60;;;0.40;;
16346;SDS011;8283;48.504;13.734;2023-04-15T09:54:57;1.38;;;1.00;;
16346;SDS011;8283;48.504;13.734;2023-04-15T09:57:42;0.65;;;0.50;;
16346;SDS011;8283;48.504;13.734;2023-04-15T10:00:30;1.08;;;0.80;;
16346;SDS011;8283;48.504;13.734;2023-04-15T10:03:19;0.50;;;0.50;;
16346;SDS011;8283;48.504;13.734;2023-04-15T10:06:08;0.73;;;0.70;;
16346;SDS011;8283;48.504;13.734;2023-04-15T10:08:53;0.60;;;0.50;;
16346;SDS011;8283;48.504;13.734;2023-04-15T10:11:39;0.60;;;0.60;;
16346;SDS011;8283;48.504;13.734;2023-04-15T10:14:23;0.60;;;0.60;;
16346;SDS011;8283;48.504;13.734;2023-04-15T10:17:10;0.70;;;0.50;;
16346;SDS011;8283;48.504;13.734;2023-04-15T10:19:55;1.05;;;0.45;;
16346;SDS011;8283;48.504;13.734;2023-04-15T10:22:40;0.50;;;0.50;;
16346;SDS011;8283;48.504;13.734;2023-04-15T10:25:26;0.85;;;0.82;;
16346;SDS011;8283;48.504;13.734;2023-04-15T10:28:12;1.20;;;0.90;;
16346;SDS011;8283;48.504;13.734;2023-04-15T10:30:58;1.30;;;1.20;;
16346;SDS011;8283;48.504;13.734;2023-04-15T10:33:44;0.90;;;0.50;;
16346;SDS011;8283;48.504;13.734;2023-04-15T10:36:31;1.00;;;0.90;;
16346;SDS011;8283;48.504;13.734;2023-04-15T10:39:59;0.55;;;0.55;;
16346;SDS011;8283;48.504;13.734;2023-04-15T10:42:32;1.58;;;0.77;;
16346;SDS011;8283;48.504;13.734;2023-04-15T10:45:18;1.02;;;0.80;;
16346;SDS011;8283;48.504;13.734;2023-04-15T10:48:04;0.60;;;0.50;;
16346;SDS011;8283;48.504;13.734;2023-04-15T10:50:55;0.98;;;0.70;;
16346;SDS011;8283;48.504;13.734;2023-04-15T10:53:40;1.15;;;0.90;;
16346;SDS011;8283;48.504;13.734;2023-04-15T10:56:28;1.00;;;0.80;;
16346;SDS011;8283;48.504;13.734;2023-04-15T10:59:13;1.20;;;0.90;;
16346;SDS011;8283;48.504;13.734;2023-04-15T11:02:00;1.80;;;1.27;;
16346;SDS011;8283;48.504;13.734;2023-04-15T11:04:52;3.70;;;1.40;;
16346;SDS011;8283;48.504;13.734;2023-04-15T11:07:48;3.03;;;1.00;;
16346;SDS011;8283;48.504;13.734;2023-04-15T11:13:21;0.95;;;0.70;;
16346;SDS011;8283;48.504;13.734;2023-04-15T11:16:08;0.65;;;0.60;;
16346;SDS011;8283;48.504;13.734;2023-04-15T11:18:53;0.60;;;0.55;;
16346;SDS011;8283;48.504;13.734;2023-04-15T11:21:38;0.90;;;0.80;;
16346;SDS011;8283;48.504;13.734;2023-04-15T11:24:23;0.80;;;0.60;;
16346;SDS011;8283;48.504;13.734;2023-04-15T11:27:18;2.80;;;0.50;;
16346;SDS011;8283;48.504;13.734;2023-04-15T11:33:20;0.63;;;0.63;;
16346;SDS011;8283;48.504;13.734;2023-04-15T11:36:05;0.55;;;0.47;;
16346;SDS011;8283;48.504;13.734;2023-04-15T11:38:50;0.90;;;0.63;;
16346;SDS011;8283;48.504;13.734;2023-04-15T11:41:34;0.60;;;0.52;;
16346;SDS011;8283;48.504;13.734;2023-04-15T11:44:19;0.80;;;0.77;;
16346;SDS011;8283;48.504;13.734;2023-04-15T11:47:21;0.70;;;0.55;;
16346;SDS011;8283;48.504;13.734;2023-04-15T11:50:16;0.57;;;0.57;;
16346;SDS011;8283;48.504;13.734;2023-04-15T11:53:10;0.73;;;0.50;;
16346;SDS011;8283;48.504;13.734;2023-04-15T11:55:56;0.60;;;0.55;;
16346;SDS011;8283;48.504;13.734;2023-04-15T11:58:40;1.00;;;0.80;;
16346;SDS011;8283;48.504;13.734;2023-04-15T12:01:32;0.98;;;0.85;;
16346;SDS011;8283;48.504;13.734;2023-04-15T12:04:18;1.73;;;0.70;;
16346;SDS011;8283;48.504;13.734;2023-04-15T12:07:04;0.90;;;0.70;;
16346;SDS011;8283;48.504;13.734;2023-04-15T12:09:54;0.52;;;0.50;;
16346;SDS011;8283;48.504;13.734;2023-04-15T12:12:39;0.40;;;0.40;;
16346;SDS011;8283;48.504;13.734;2023-04-15T12:15:24;0.40;;;0.40;;
16346;SDS011;8283;48.504;13.734;2023-04-15T12:18:15;0.43;;;0.43;;
16346;SDS011;8283;48.504;13.734;2023-04-15T12:21:08;0.57;;;0.57;;
16346;SDS011;8283;48.504;13.734;2023-04-15T12:23:54;0.55;;;0.50;;
16346;SDS011;8283;48.504;13.734;2023-04-15T12:26:53;0.50;;;0.40;;
16346;SDS011;8283;48.504;13.734;2023-04-15T12:29:40;0.70;;;0.70;;
16346;SDS011;8283;48.504;13.734;2023-04-15T12:32:28;0.50;;;0.50;;
16346;SDS011;8283;48.504;13.734;2023-04-15T12:35:12;1.48;;;0.68;;
16346;SDS011;8283;48.504;13.734;2023-04-15T12:37:57;1.75;;;0.73;;
16346;SDS011;8283;48.504;13.734;2023-04-15T12:40:42;1.73;;;0.70;;
16346;SDS011;8283;48.504;13.734;2023-04-15T12:43:29;0.70;;;0.70;;
16346;SDS011;8283;48.504;13.734;2023-04-15T12:46:14;2.92;;;0.77;;
16346;SDS011;8283;48.504;13.734;2023-04-15T12:48:59;0.60;;;0.60;;
16346;SDS011;8283;48.504;13.734;2023-04-15T12:51:44;3.95;;;0.75;;
16346;SDS011;8283;48.504;13.734;2023-04-15T12:54:31;1.33;;;0.60;;
16346;SDS011;8283;48.504;13.734;2023-04-15T12:57:15;0.82;;;0.60;;
16346;SDS011;8283;48.504;13.734;2023-04-15T13:00:00;0.40;;;0.40;;
16346;SDS011;8283;48.504;13.734;2023-04-15T13:02:45;0.77;;;0.57;;
16346;SDS011;8283;48.504;13.734;2023-04-15T13:05:29;0.85;;;0.70;;
16346;SDS011;8283;48.504;13.734;2023-04-15T13:08:14;0.40;;;0.40;;
16346;SDS011;8283;48.504;13.734;2023-04-15T13:10:59;0.90;;;0.60;;
16346;SDS011;8283;48.504;13.734;2023-04-15T13:13:44;0.50;;;0.50;;
16346;SDS011;8283;48.504;13.734;2023-04-15T13:16:29;0.88;;;0.50;;
16346;SDS011;8283;48.504;13.734;2023-04-15T13:19:14;0.88;;;0.60;;
16346;SDS011;8283;48.504;13.734;2023-04-15T13:21:59;0.43;;;0.40;;
16346;SDS011;8283;48.504;13.734;2023-04-15T13:24:43;0.73;;;0.55;;
16346;SDS011;8283;48.504;13.734;2023-04-15T13:27:28;0.40;;;0.40;;
16346;SDS011;8283;48.504;13.734;2023-04-15T13:30:12;0.70;;;0.40;;
16346;SDS011;8283;48.504;13.734;2023-04-15T13:32:57;0.75;;;0.40;;
16346;SDS011;8283;48.504;13.734;2023-04-15T13:35:41;0.82;;;0.55;;
16346;SDS011;8283;48.504;13.734;2023-04-15T13:38:26;0.68;;;0.60;;
16346;SDS011;8283;48.504;13.734;2023-04-15T13:41:10;0.60;;;0.50;;
16346;SDS011;8283;48.504;13.734;2023-04-15T13:43:54;0.70;;;0.63;;
16346;SDS011;8283;48.504;13.734;2023-04-15T13:46:41;1.23;;;0.73;;
16346;SDS011;8283;48.504;13.734;2023-04-15T13:49:25;0.70;;;0.60;;
16346;SDS011;8283;48.504;13.734;2023-04-15T13:52:10;0.40;;;0.40;;
16346;SDS011;8283;48.504;13.734;2023-04-15T13:54:55;0.85;;;0.50;;
16346;SDS011;8283;48.504;13.734;2023-04-15T13:57:39;1.02;;;0.60;;
16346;SDS011;8283;48.504;13.734;2023-04-15T14:00:23;1.13;;;0.70;;
16346;SDS011;8283;48.504;13.734;2023-04-15T14:03:08;0.82;;;0.63;;
16346;SDS011;8283;48.504;13.734;2023-04-15T14:05:52;0.80;;;0.70;;
16346;SDS011;8283;48.504;13.734;2023-04-15T14:08:38;2.70;;;1.02;;
16346;SDS011;8283;48.504;13.734;2023-04-15T14:11:23;0.65;;;0.50;;
16346;SDS011;8283;48.504;13.734;2023-04-15T14:14:08;0.98;;;0.63;;
16346;SDS011;8283;48.504;13.734;2023-04-15T14:16:53;1.00;;;0.80;;
16346;SDS011;8283;48.504;13.734;2023-04-15T14:19:38;0.57;;;0.50;;
16346;SDS011;8283;48.504;13.734;2023-04-15T14:22:23;0.90;;;0.70;;
16346;SDS011;8283;48.504;13.734;2023-04-15T14:25:07;0.70;;;0.60;;
16346;SDS011;8283;48.504;13.734;2023-04-15T14:27:52;0.65;;;0.60;;
16346;SDS011;8283;48.504;13.734;2023-04-15T14:30:37;0.88;;;0.57;;
16346;SDS011;8283;48.504;13.734;2023-04-15T14:33:21;0.80;;;0.80;;
16346;SDS011;8283;48.504;13.734;2023-04-15T14:36:06;0.63;;;0.43;;
16346;SDS011;8283;48.504;13.734;2023-04-15T14:38:51;0.85;;;0.50;;
16346;SDS011;8283;48.504;13.734;2023-04-15T14:41:35;0.50;;;0.50;;
16346;SDS011;8283;48.504;13.734;2023-04-15T14:44:20;0.50;;;0.50;;
16346;SDS011;8283;48.504;13.734;2023-04-15T14:47:04;1.10;;;0.88;;
16346;SDS011;8283;48.504;13.734;2023-04-15T14:49:49;0.60;;;0.60;;
16346;SDS011;8283;48.504;13.734;2023-04-15T14:52:33;0.57;;;0.50;;
16346;SDS011;8283;48.504;13.734;2023-04-15T14:55:21;0.70;;;0.68;;
16346;SDS011;8283;48.504;13.734;2023-04-15T14:58:05;0.65;;;0.65;;
16346;SDS011;8283;48.504;13.734;2023-04-15T15:00:51;0.60;;;0.60;;
16346;SDS011;8283;48.504;13.734;2023-04-15T15:03:35;0.55;;;0.55;;
16346;SDS011;8283;48.504;13.734;2023-04-15T15:06:20;0.73;;;0.60;;
16346;SDS011;8283;48.504;13.734;2023-04-15T15:09:05;0.70;;;0.70;;
16346;SDS011;8283;48.504;13.734;2023-04-15T15:11:49;0.75;;;0.75;;
16346;SDS011;8283;48.504;13.734;2023-04-15T15:14:34;0.63;;;0.63;;
16346;SDS011;8283;48.504;13.734;2023-04-15T15:17:18;1.27;;;0.60;;
16346;SDS011;8283;48.504;13.734;2023-04-15T15:20:02;1.42;;;0.80;;
16346;SDS011;8283;48.504;13.734;2023-04-15T15:22:47;2.00;;;0.70;;
16346;SDS011;8283;48.504;13.734;2023-04-15T15:25:32;0.90;;;0.77;;
16346;SDS011;8283;48.504;13.734;2023-04-15T15:28:16;0.80;;;0.50;;
16346;SDS011;8283;48.504;13.734;2023-04-15T15:31:00;0.60;;;0.60;;
16346;SDS011;8283;48.504;13.734;2023-04-15T15:33:45;1.23;;;1.13;;
16346;SDS011;8283;48.504;13.734;2023-04-15T15:36:29;2.75;;;0.77;;
16346;SDS011;8283;48.504;13.734;2023-04-15T15:39:14;1.20;;;1.10;;
16346;SDS011;8283;48.504;13.734;2023-04-15T15:41:59;3.65;;;0.90;;
16346;SDS011;8283;48.504;13.734;2023-04-15T15:44:43;0.80;;;0.77;;
16346;SDS011;8283;48.504;13.734;2023-04-15T15:47:28;0.80;;;0.70;;
16346;SDS011;8283;48.504;13.734;2023-04-15T15:50:12;1.13;;;1.00;;
16346;SDS011;8283;48.504;13.734;2023-04-15T15:52:58;2.70;;;1.10;;
16346;SDS011;8283;48.504;13.734;2023-04-15T15:55:42;1.10;;;1.00;;
16346;SDS011;8283;48.504;13.734;2023-04-15T15:58:26;1.95;;;1.20;;
16346;SDS011;8283;48.504;13.734;2023-04-15T16:01:11;1.60;;;1.02;;
16346;SDS011;8283;48.504;13.734;2023-04-15T16:03:55;1.27;;;1.00;;
16346;SDS011;8283;48.504;13.734;2023-04-15T16:06:39;2.00;;;1.20;;
16346;SDS011;8283;48.504;13.734;2023-04-15T16:09:23;1.67;;;1.15;;
16346;SDS011;8283;48.504;13.734;2023-04-15T16:12:08;1.00;;;0.90;;
16346;SDS011;8283;48.504;13.734;2023-04-15T16:14:52;1.10;;;0.90;;
16346;SDS011;8283;48.504;13.734;2023-04-15T16:17:37;1.70;;;1.35;;
16346;SDS011;8283;48.504;13.734;2023-04-15T16:20:22;2.45;;;2.00;;
16346;SDS011;8283;48.504;13.734;2023-04-15T16:23:13;2.25;;;1.98;;
16346;SDS011;8283;48.504;13.734;2023-04-15T16:25:58;2.00;;;1.40;;
16346;SDS011;8283;48.504;13.734;2023-04-15T16:28:44;1.23;;;1.08;;
16346;SDS011;8283;48.504;13.734;2023-04-15T16:31:28;1.42;;;1.30;;
16346;SDS011;8283;48.504;13.734;2023-04-15T16:34:13;1.80;;;1.55;;
16346;SDS011;8283;48.504;13.734;2023-04-15T16:36:59;1.50;;;1.20;;
16346;SDS011;8283;48.504;13.734;2023-04-15T16:39:43;1.05;;;0.90;;
16346;SDS011;8283;48.504;13.734;2023-04-15T16:42:28;1.25;;;1.10;;